Time;durP1;ratioP1;P1;durP2;ratioP2;P2;SDS_P1;SDS_P2;PMS_P1;PMS_P2;Temp;Humidity;BMP_temperature;BMP_pressure;BME280_temperature;BME280_humidity;BME280_pressure;Samples;Min_cycle;Max_cycle;Signal;HPM_P1;HPM_P2
2023/09/11 00:00:45;;;;;;;6.88;5.13;;;20.70;99.90;;;;;;4985623;28;20033;-73
2023/09/11 00:03:10;;;;;;;11.85;5.53;;;20.60;99.90;;;;;;4985728;28;20479;-73
2023/09/11 00:05:36;;;;;;;10.98;6.00;;;20.70;99.90;;;;;;4987197;28;20061;-73
2023/09/11 00:08:02;;;;;;;7.82;5.15;;;20.80;99.90;;;;;;4987872;28;20084;-74
2023/09/11 00:10:28;;;;;;;9.27;5.70;;;20.80;99.90;;;;;;4990363;28;21033;-74
2023/09/11 00:12:53;;;;;;;11.02;5.80;;;20.70;99.90;;;;;;4985585;28;20026;-74
2023/09/11 00:15:19;;;;;;;8.70;6.75;;;20.70;99.90;;;;;;4986274;28;20062;-74
2023/09/11 00:17:45;;;;;;;8.60;5.28;;;20.50;99.90;;;;;;4985839;28;20045;-74
2023/09/11 00:20:11;;;;;;;8.32;5.80;;;20.40;99.90;;;;;;4989066;28;20442;-74
2023/09/11 00:22:37;;;;;;;8.20;5.30;;;20.30;99.90;;;;;;4985163;28;20087;-74
2023/09/11 00:25:03;;;;;;;6.88;5.30;;;20.20;99.90;;;;;;4985461;28;20034;-74
2023/09/11 00:27:28;;;;;;;7.65;5.55;;;20.10;99.90;;;;;;4983905;28;20506;-74
2023/09/11 00:29:55;;;;;;;8.60;5.90;;;20.10;99.90;;;;;;4985590;28;20467;-73
2023/09/11 00:32:20;;;;;;;8.13;5.55;;;20.00;99.90;;;;;;4989246;28;20028;-74
2023/09/11 00:34:46;;;;;;;8.30;5.88;;;20.00;99.90;;;;;;4987301;28;20021;-74
2023/09/11 00:37:12;;;;;;;10.52;6.03;;;20.10;99.90;;;;;;4986233;28;20057;-74
2023/09/11 00:39:37;;;;;;;6.43;5.35;;;20.10;99.90;;;;;;4985877;28;20022;-74
2023/09/11 00:42:03;;;;;;;8.35;5.82;;;20.10;99.90;;;;;;4983866;28;20033;-74
2023/09/11 00:44:29;;;;;;;8.90;5.70;;;20.10;99.90;;;;;;4991193;28;20380;-74
2023/09/11 00:46:56;;;;;;;9.52;5.55;;;20.00;99.90;;;;;;4985860;28;20061;-74
2023/09/11 00:49:22;;;;;;;8.73;6.03;;;20.00;99.90;;;;;;4986740;28;20061;-74
2023/09/11 00:51:50;;;;;;;9.57;5.68;;;19.90;99.90;;;;;;4984722;28;20038;-75
2023/09/11 00:54:18;;;;;;;8.13;5.50;;;19.90;99.90;;;;;;4984847;28;20084;-74
2023/09/11 00:56:46;;;;;;;7.97;5.68;;;19.90;99.90;;;;;;4988161;28;20573;-74
2023/09/11 00:59:13;;;;;;;7.95;5.50;;;19.80;99.90;;;;;;4984430;28;20154;-74
2023/09/11 01:01:42;;;;;;;8.07;5.93;;;19.80;99.90;;;;;;4987587;28;20045;-74
2023/09/11 01:04:08;;;;;;;8.15;6.20;;;19.70;99.90;;;;;;4983793;28;20038;-74
2023/09/11 01:06:33;;;;;;;9.98;6.25;;;19.60;99.90;;;;;;4992724;28;23177;-74
2023/09/11 01:09:00;;;;;;;9.70;5.95;;;19.50;99.90;;;;;;4987684;28;20095;-74
2023/09/11 01:11:25;;;;;;;7.90;5.45;;;19.70;99.90;;;;;;4985459;28;20026;-74
2023/09/11 01:13:51;;;;;;;9.88;5.82;;;19.70;99.90;;;;;;4985662;28;20046;-74
2023/09/11 01:16:26;;;;;;;8.55;5.32;;;19.70;99.90;;;;;;4983744;28;20132;-74
2023/09/11 01:19:41;;;;;;;10.23;5.68;;;19.70;99.90;;;;;;4985891;28;20029;-74
2023/09/11 01:22:15;;;;;;;;;;;19.70;99.90;;;;;;4965578;28;20045;-74
2023/09/11 01:24:47;;;;;;;8.20;5.82;;;19.70;99.90;;;;;;4989014;28;19925;-74
2023/09/11 01:27:22;;;;;;;8.00;5.40;;;19.80;99.90;;;;;;4993755;28;20029;-74
2023/09/11 01:29:51;;;;;;;7.45;5.68;;;19.80;99.90;;;;;;4989395;28;20034;-74
2023/09/11 01:32:18;;;;;;;9.52;6.30;;;19.70;99.90;;;;;;4990259;28;20121;-74
2023/09/11 01:34:44;;;;;;;8.77;5.75;;;19.70;99.90;;;;;;4989501;28;20065;-74
2023/09/11 01:37:09;;;;;;;10.25;6.18;;;19.60;99.90;;;;;;4990124;28;20116;-74
2023/09/11 01:39:35;;;;;;;13.00;7.05;;;19.60;99.90;;;;;;4989129;28;20056;-73
2023/09/11 01:42:07;;;;;;;9.15;5.90;;;19.50;99.90;;;;;;4990765;28;20037;-74
2023/09/11 01:44:41;;;;;;;7.10;5.75;;;19.60;99.90;;;;;;4989598;28;20042;-74
2023/09/11 01:47:09;;;;;;;7.72;5.82;;;19.70;99.90;;;;;;4986433;28;20090;-74
2023/09/11 01:49:37;;;;;;;9.25;5.82;;;19.70;99.90;;;;;;4991865;28;20040;-74
2023/09/11 01:52:03;;;;;;;8.82;6.57;;;19.60;99.90;;;;;;4987716;28;20117;-74
2023/09/11 01:54:29;;;;;;;11.15;6.63;;;19.60;99.90;;;;;;4988224;28;20157;-74
2023/09/11 01:56:55;;;;;;;8.15;6.22;;;19.60;99.90;;;;;;4988007;28;20042;-73
2023/09/11 01:59:21;;;;;;;9.85;6.45;;;19.50;99.90;;;;;;4990872;28;20038;-74
2023/09/11 02:01:46;;;;;;;8.52;6.05;;;19.60;99.90;;;;;;4991901;28;20552;-74
2023/09/11 02:04:12;;;;;;;8.90;6.15;;;19.50;99.90;;;;;;4986079;28;20116;-74
2023/09/11 02:06:38;;;;;;;7.60;5.78;;;19.60;99.90;;;;;;4986226;28;20038;-74
2023/09/11 02:09:04;;;;;;;8.63;6.25;;;19.60;99.90;;;;;;4990313;28;20092;-74
2023/09/11 02:11:30;;;;;;;11.85;6.63;;;19.70;99.90;;;;;;4986661;28;20113;-74
2023/09/11 02:13:56;;;;;;;10.40;7.95;;;19.60;99.90;;;;;;4988528;28;20044;-74
2023/09/11 02:16:21;;;;;;;9.30;6.82;;;19.60;99.90;;;;;;4990336;28;20514;-74
2023/09/11 02:18:47;;;;;;;9.60;6.70;;;19.60;99.90;;;;;;4986124;28;20030;-74
2023/09/11 02:21:12;;;;;;;8.95;6.40;;;19.60;99.90;;;;;;4991197;28;20030;-73
2023/09/11 02:23:38;;;;;;;9.52;6.97;;;19.50;99.90;;;;;;4989088;28;20105;-73
2023/09/11 02:26:04;;;;;;;13.48;8.35;;;19.50;99.90;;;;;;4988347;28;20030;-73
2023/09/11 02:28:31;;;;;;;10.35;7.30;;;19.40;99.90;;;;;;4986184;28;20124;-73
2023/09/11 02:30:57;;;;;;;10.93;8.10;;;19.40;99.90;;;;;;4986474;28;20402;-73
2023/09/11 02:33:23;;;;;;;10.25;7.85;;;19.20;99.90;;;;;;4991428;28;20935;-73
2023/09/11 02:35:54;;;;;;;9.65;7.20;;;19.20;99.90;;;;;;4989753;28;20042;-73
2023/09/11 02:38:20;;;;;;;10.88;7.78;;;19.10;99.90;;;;;;4987704;28;20088;-73
2023/09/11 02:40:46;;;;;;;11.15;7.50;;;19.20;99.90;;;;;;4984467;28;20124;-73
2023/09/11 02:43:12;;;;;;;9.57;6.68;;;19.30;99.90;;;;;;4986266;28;20034;-73
2023/09/11 02:45:37;;;;;;;10.10;8.18;;;19.40;99.90;;;;;;4987255;28;20022;-73
2023/09/11 02:48:03;;;;;;;13.25;8.15;;;19.40;99.90;;;;;;4990610;28;20069;-73
2023/09/11 02:50:29;;;;;;;15.18;8.80;;;19.30;99.90;;;;;;4983267;28;20566;-73
2023/09/11 02:52:55;;;;;;;10.98;8.45;;;19.30;99.90;;;;;;4990803;28;20044;-73
2023/09/11 02:55:20;;;;;;;8.75;6.70;;;19.40;99.90;;;;;;4986779;28;20057;-73
2023/09/11 02:57:46;;;;;;;9.60;6.70;;;19.40;99.90;;;;;;4986938;28;20061;-73
2023/09/11 03:00:12;;;;;;;9.65;6.43;;;19.30;99.90;;;;;;4986101;28;21955;-73
2023/09/11 03:02:39;;;;;;;8.15;6.15;;;19.40;99.90;;;;;;4987926;28;20029;-73
2023/09/11 03:05:05;;;;;;;10.30;6.78;;;19.30;99.90;;;;;;4983842;28;20032;-73
2023/09/11 03:07:30;;;;;;;9.23;6.50;;;19.20;99.90;;;;;;4991051;28;20038;-73
2023/09/11 03:09:56;;;;;;;10.80;8.63;;;19.20;99.90;;;;;;4985653;28;20041;-73
2023/09/11 03:12:21;;;;;;;12.18;7.65;;;19.10;99.90;;;;;;4982468;28;20407;-73
2023/09/11 03:14:54;;;;;;;10.30;7.90;;;19.10;99.90;;;;;;4989967;28;20041;-73
2023/09/11 03:17:19;;;;;;;10.60;7.88;;;19.10;99.90;;;;;;4979373;28;20111;-73
2023/09/11 03:19:46;;;;;;;11.63;7.97;;;19.00;99.90;;;;;;4981940;28;20037;-73
2023/09/11 03:22:12;;;;;;;10.90;8.18;;;18.90;99.90;;;;;;4980910;28;20492;-73
2023/09/11 03:24:37;;;;;;;12.52;8.45;;;18.80;99.90;;;;;;4981157;28;20030;-73
2023/09/11 03:27:03;;;;;;;11.48;8.93;;;18.80;99.90;;;;;;4981309;28;20029;-73
2023/09/11 03:29:29;;;;;;;11.35;8.35;;;18.70;99.90;;;;;;4981738;28;20039;-73
2023/09/11 03:31:54;;;;;;;10.63;8.02;;;18.70;99.90;;;;;;4982848;28;20037;-73
2023/09/11 03:34:20;;;;;;;17.05;9.48;;;18.90;99.90;;;;;;4984074;28;20041;-73
2023/09/11 03:36:46;;;;;;;12.43;8.80;;;18.60;99.90;;;;;;4982817;28;20533;-73
2023/09/11 03:39:11;;;;;;;13.40;7.82;;;18.70;99.90;;;;;;4988418;28;20156;-73
2023/09/11 03:41:37;;;;;;;11.23;8.18;;;18.70;99.90;;;;;;4983344;28;20161;-73
2023/09/11 03:44:02;;;;;;;10.43;7.10;;;18.80;99.90;;;;;;4981264;28;22902;-73
2023/09/11 03:46:28;;;;;;;10.07;6.90;;;18.80;99.90;;;;;;4982573;28;20041;-73
2023/09/11 03:48:54;;;;;;;10.48;7.70;;;18.90;99.90;;;;;;4982993;28;20407;-73
2023/09/11 03:51:19;;;;;;;10.75;7.43;;;19.00;99.90;;;;;;4982020;28;20562;-74
2023/09/11 03:53:45;;;;;;;10.00;7.75;;;19.00;99.90;;;;;;4984856;28;20078;-74
2023/09/11 03:56:14;;;;;;;12.75;9.57;;;18.80;99.90;;;;;;4980746;28;20799;-74
2023/09/11 03:58:42;;;;;;;9.68;8.18;;;18.80;99.90;;;;;;4981208;28;20050;-74
2023/09/11 04:01:08;;;;;;;11.60;8.75;;;18.70;99.90;;;;;;4982167;28;20818;-73
2023/09/11 04:03:34;;;;;;;10.50;8.02;;;18.70;99.90;;;;;;4982507;28;20037;-73
2023/09/11 04:05:59;;;;;;;10.15;8.02;;;18.70;99.90;;;;;;4980440;28;20630;-74
2023/09/11 04:08:25;;;;;;;9.48;7.97;;;18.70;99.90;;;;;;4986477;28;20037;-74
2023/09/11 04:10:51;;;;;;;12.07;9.02;;;18.70;99.90;;;;;;4983853;28;20033;-74
2023/09/11 04:13:16;;;;;;;12.23;9.45;;;18.90;99.90;;;;;;4986474;28;20114;-73
2023/09/11 04:15:43;;;;;;;10.70;9.55;;;18.90;99.90;;;;;;4980766;28;20112;-73
2023/09/11 04:18:09;;;;;;;11.43;8.43;;;18.70;99.90;;;;;;4980447;28;20061;-74
2023/09/11 04:20:35;;;;;;;11.93;7.63;;;18.70;99.90;;;;;;4984714;28;20124;-74
2023/09/11 04:23:01;;;;;;;13.00;8.38;;;18.60;99.90;;;;;;4985958;28;20068;-73
2023/09/11 04:25:27;;;;;;;10.30;7.85;;;18.60;99.90;;;;;;4984433;28;21344;-73
2023/09/11 04:27:53;;;;;;;10.88;8.43;;;18.60;99.90;;;;;;4982266;28;20104;-73
2023/09/11 04:30:18;;;;;;;11.52;7.93;;;18.70;99.90;;;;;;4981926;28;20041;-73
2023/09/11 04:32:44;;;;;;;11.38;8.38;;;18.80;99.90;;;;;;4980179;28;20041;-74
2023/09/11 04:35:10;;;;;;;12.15;8.80;;;18.60;99.90;;;;;;4982281;28;20357;-74
2023/09/11 04:37:36;;;;;;;13.20;9.13;;;18.40;99.90;;;;;;4982114;28;20029;-74
2023/09/11 04:40:06;;;;;;;15.00;8.60;;;18.40;99.90;;;;;;4984990;28;20022;-73
2023/09/11 04:42:32;;;;;;;10.90;7.93;;;18.30;99.90;;;;;;4983000;28;20049;-73
2023/09/11 04:45:00;;;;;;;10.77;8.10;;;18.40;99.90;;;;;;4981076;28;20600;-73
2023/09/11 04:47:30;;;;;;;10.50;7.95;;;18.50;99.90;;;;;;4980582;28;20030;-73
2023/09/11 04:49:56;;;;;;;10.40;7.75;;;18.50;99.90;;;;;;4980575;28;20399;-73
2023/09/11 04:52:21;;;;;;;12.15;7.70;;;18.40;99.90;;;;;;4983949;28;20037;-74
2023/09/11 04:54:47;;;;;;;9.95;7.70;;;18.40;99.90;;;;;;4985632;28;20034;-73
2023/09/11 04:57:13;;;;;;;9.93;7.78;;;18.30;99.90;;;;;;4982142;28;20054;-74
2023/09/11 04:59:38;;;;;;;11.38;7.95;;;18.30;99.90;;;;;;4987680;28;20117;-73
2023/09/11 05:02:04;;;;;;;12.35;8.52;;;18.30;99.90;;;;;;4984985;28;20038;-74
2023/09/11 05:04:29;;;;;;;12.52;7.00;;;18.20;99.90;;;;;;4981885;28;20690;-74
2023/09/11 05:06:55;;;;;;;10.90;8.07;;;18.30;99.90;;;;;;4989195;28;20046;-74
2023/09/11 05:09:21;;;;;;;11.48;7.75;;;18.50;99.90;;;;;;4987676;28;20034;-74
2023/09/11 05:11:48;;;;;;;14.70;8.85;;;18.60;99.90;;;;;;4985354;28;20054;-74
2023/09/11 05:14:13;;;;;;;10.02;7.88;;;18.60;99.90;;;;;;4985681;28;20029;-74
2023/09/11 05:16:39;;;;;;;10.40;8.88;;;18.60;99.90;;;;;;4983692;28;20061;-73
2023/09/11 05:19:05;;;;;;;16.48;9.50;;;18.50;99.90;;;;;;4986950;28;20599;-73
2023/09/11 05:21:32;;;;;;;10.07;8.73;;;18.40;99.90;;;;;;4983452;28;20720;-74
2023/09/11 05:23:58;;;;;;;16.58;8.77;;;18.40;99.90;;;;;;4982717;28;20556;-73
2023/09/11 05:26:23;;;;;;;11.27;7.93;;;18.40;99.90;;;;;;4985709;28;20062;-74
2023/09/11 05:28:49;;;;;;;9.35;7.07;;;18.40;99.90;;;;;;4983251;28;20786;-74
2023/09/11 05:31:15;;;;;;;12.98;7.95;;;18.50;99.90;;;;;;4989785;28;20060;-73
2023/09/11 05:33:40;;;;;;;10.70;8.80;;;18.40;99.90;;;;;;4989333;28;20022;-73
2023/09/11 05:36:06;;;;;;;13.73;8.73;;;18.30;99.90;;;;;;4991654;28;20042;-73
2023/09/11 05:38:32;;;;;;;13.50;8.65;;;18.50;99.90;;;;;;4992101;28;20026;-73
2023/09/11 05:40:57;;;;;;;11.85;8.15;;;18.50;99.90;;;;;;4997511;28;20033;-73
2023/09/11 05:43:24;;;;;;;20.50;9.52;;;18.60;99.90;;;;;;4997596;28;20066;-73
2023/09/11 05:45:50;;;;;;;12.93;9.50;;;18.50;99.90;;;;;;4997387;28;20076;-73
2023/09/11 05:48:15;;;;;;;11.30;9.07;;;18.40;99.90;;;;;;4994192;28;20026;-73
2023/09/11 05:50:41;;;;;;;9.68;8.55;;;18.40;99.90;;;;;;4995073;28;20030;-73
2023/09/11 05:53:07;;;;;;;12.40;8.18;;;18.40;99.90;;;;;;4987781;28;20030;-74
2023/09/11 05:55:33;;;;;;;13.18;8.05;;;18.50;99.90;;;;;;4996104;28;20049;-73
2023/09/11 05:57:59;;;;;;;11.18;7.88;;;18.60;99.90;;;;;;4995415;28;20042;-73
2023/09/11 06:00:26;;;;;;;14.32;9.15;;;18.70;99.90;;;;;;4985049;28;20113;-73
2023/09/11 06:02:52;;;;;;;11.38;8.35;;;18.70;99.90;;;;;;4989147;28;20037;-73
2023/09/11 06:05:20;;;;;;;16.48;9.18;;;18.60;99.90;;;;;;4995142;28;20664;-75
2023/09/11 06:07:46;;;;;;;11.90;7.80;;;18.60;99.90;;;;;;5008069;28;20513;-75
2023/09/11 06:10:12;;;;;;;12.57;8.23;;;18.70;99.90;;;;;;5002155;28;20483;-74
2023/09/11 06:12:38;;;;;;;14.32;9.43;;;18.70;99.90;;;;;;4996366;28;20030;-74
2023/09/11 06:15:05;;;;;;;13.13;8.52;;;18.60;99.90;;;;;;5011059;28;20407;-74
2023/09/11 06:17:34;;;;;;;14.38;9.93;;;18.70;99.90;;;;;;4998591;28;20038;-74
2023/09/11 06:20:00;;;;;;;13.13;9.40;;;18.70;99.90;;;;;;4996491;28;20030;-73
2023/09/11 06:22:26;;;;;;;12.13;8.65;;;18.80;99.90;;;;;;5003698;28;20052;-73
2023/09/11 06:24:52;;;;;;;14.27;9.82;;;18.70;99.90;;;;;;5004638;28;21049;-73
2023/09/11 06:27:18;;;;;;;14.70;9.18;;;18.60;99.90;;;;;;5000743;28;20102;-73
2023/09/11 06:29:44;;;;;;;13.20;9.15;;;18.50;99.90;;;;;;5007295;28;20033;-73
2023/09/11 06:32:12;;;;;;;12.45;9.40;;;18.50;99.90;;;;;;5011873;28;21015;-73
2023/09/11 06:34:38;;;;;;;12.75;9.57;;;18.60;99.90;;;;;;4993079;28;20056;-73
2023/09/11 06:37:06;;;;;;;14.85;10.63;;;18.60;99.90;;;;;;4995584;28;20980;-73
2023/09/11 06:39:31;;;;;;;11.52;9.55;;;18.50;99.90;;;;;;4995407;28;20030;-73
2023/09/11 06:41:57;;;;;;;13.73;10.63;;;18.60;99.90;;;;;;4999693;28;20034;-73
2023/09/11 06:44:23;;;;;;;13.85;10.73;;;18.70;99.90;;;;;;5010326;28;20040;-73
2023/09/11 06:46:49;;;;;;;13.65;11.15;;;18.70;99.90;;;;;;5011886;28;20088;-73
2023/09/11 06:49:14;;;;;;;13.48;10.20;;;18.70;99.90;;;;;;5002782;28;20029;-74
2023/09/11 06:51:40;;;;;;;18.20;11.20;;;18.70;99.90;;;;;;4992852;28;20202;-73
2023/09/11 06:54:09;;;;;;;14.20;9.93;;;18.80;99.90;;;;;;4996728;28;20480;-73
2023/09/11 06:56:35;;;;;;;14.00;9.50;;;18.90;99.90;;;;;;5017829;28;20076;-73
2023/09/11 06:59:01;;;;;;;13.18;9.02;;;19.30;99.90;;;;;;5004524;28;20050;-73
2023/09/11 07:01:27;;;;;;;13.75;8.95;;;21.50;99.90;;;;;;4998435;28;20385;-74
2023/09/11 07:03:52;;;;;;;15.98;9.77;;;23.60;99.90;;;;;;4993666;28;20130;-74
2023/09/11 07:06:19;;;;;;;13.00;9.55;;;25.10;99.90;;;;;;4988509;28;20038;-74
2023/09/11 07:08:46;;;;;;;12.63;9.00;;;26.00;99.40;;;;;;4996289;28;20033;-76
2023/09/11 07:11:15;;;;;;;15.40;9.38;;;26.90;97.80;;;;;;5002062;28;20091;-75
2023/09/11 07:13:41;;;;;;;10.45;7.95;;;26.70;97.40;;;;;;4985452;28;20034;-76
2023/09/11 07:16:07;;;;;;;13.23;8.63;;;24.00;99.90;;;;;;4983751;28;20038;-77
2023/09/11 07:18:32;;;;;;;10.70;9.05;;;22.10;99.90;;;;;;4985344;28;20062;-76
2023/09/11 07:20:58;;;;;;;14.25;8.93;;;21.00;99.90;;;;;;4982815;28;20668;-76
2023/09/11 07:23:27;;;;;;;13.23;9.70;;;20.50;99.90;;;;;;4988051;28;20088;-76
2023/09/11 07:25:55;;;;;;;13.20;8.63;;;20.20;99.90;;;;;;4995325;28;20178;-75
2023/09/11 07:28:24;;;;;;;16.67;9.15;;;20.10;99.90;;;;;;4983946;28;20031;-75
2023/09/11 07:30:50;;;;;;;15.55;9.38;;;20.10;99.90;;;;;;4984785;28;20084;-76
2023/09/11 07:33:16;;;;;;;13.63;9.25;;;20.00;99.90;;;;;;4987441;28;20037;-76
2023/09/11 07:35:41;;;;;;;17.25;10.25;;;20.00;99.90;;;;;;4991362;28;20535;-75
2023/09/11 07:38:07;;;;;;;19.75;9.00;;;20.10;99.90;;;;;;4995909;28;20918;-75
2023/09/11 07:40:33;;;;;;;14.30;9.43;;;20.10;99.90;;;;;;4992494;28;20083;-75
2023/09/11 07:42:58;;;;;;;12.48;8.98;;;20.30;99.90;;;;;;4981918;28;20030;-75
2023/09/11 07:45:24;;;;;;;12.70;9.00;;;20.20;99.90;;;;;;4983438;28;20042;-74
2023/09/11 07:47:50;;;;;;;13.63;8.52;;;20.20;99.90;;;;;;4990125;28;20637;-75
2023/09/11 07:50:16;;;;;;;16.00;9.25;;;20.30;99.90;;;;;;4989213;28;20057;-74
2023/09/11 07:52:42;;;;;;;15.00;10.07;;;20.30;99.90;;;;;;4990243;28;20065;-74
2023/09/11 07:55:08;;;;;;;14.82;9.70;;;20.40;99.90;;;;;;4990306;28;20034;-75
2023/09/11 07:57:33;;;;;;;14.02;9.63;;;20.50;99.90;;;;;;4989194;28;20054;-74
2023/09/11 08:00:04;;;;;;;12.95;10.25;;;20.60;99.90;;;;;;4985779;28;20460;-75
2023/09/11 08:02:30;;;;;;;12.40;9.05;;;20.60;99.90;;;;;;4983124;28;20038;-75
2023/09/11 08:04:56;;;;;;;15.50;9.77;;;20.50;99.90;;;;;;4983710;28;20035;-75
2023/09/11 08:07:22;;;;;;;17.38;9.70;;;20.50;99.90;;;;;;4992734;28;20026;-76
2023/09/11 08:09:47;;;;;;;11.95;10.35;;;20.60;99.90;;;;;;4995714;28;20134;-77
2023/09/11 08:12:13;;;;;;;14.02;8.73;;;20.60;99.90;;;;;;4998380;28;20030;-77
2023/09/11 08:14:39;;;;;;;12.13;9.45;;;20.80;99.90;;;;;;4991526;28;20031;-77
2023/09/11 08:17:05;;;;;;;11.38;9.60;;;20.90;99.90;;;;;;4991145;28;20030;-77
2023/09/11 08:19:30;;;;;;;12.07;8.95;;;20.80;99.90;;;;;;4984927;28;20059;-76
2023/09/11 08:21:56;;;;;;;24.52;9.75;;;21.00;99.90;;;;;;4983615;28;20127;-76
2023/09/11 08:24:23;;;;;;;14.10;9.93;;;21.00;99.90;;;;;;4984035;28;20050;-76
2023/09/11 08:26:49;;;;;;;13.98;8.77;;;21.10;99.90;;;;;;4985940;28;20037;-77
2023/09/11 08:29:15;;;;;;;15.45;8.77;;;21.00;99.90;;;;;;4981451;28;20034;-76
2023/09/11 08:31:41;;;;;;;14.52;8.70;;;21.10;99.90;;;;;;4985249;28;20030;-77
2023/09/11 08:34:08;;;;;;;15.68;9.95;;;21.10;99.90;;;;;;4983189;28;20504;-77
2023/09/11 08:36:33;;;;;;;15.27;8.82;;;21.20;99.90;;;;;;4984663;28;20176;-76
2023/09/11 08:38:59;;;;;;;16.30;9.50;;;21.30;99.90;;;;;;4983500;28;20591;-76
2023/09/11 08:41:25;;;;;;;17.73;10.13;;;21.40;99.90;;;;;;4989128;28;20034;-75
2023/09/11 08:43:51;;;;;;;19.08;9.55;;;21.40;99.90;;;;;;4985141;28;20117;-75
2023/09/11 08:46:18;;;;;;;16.00;10.25;;;21.50;99.90;;;;;;4983865;28;20450;-76
2023/09/11 08:48:46;;;;;;;13.98;10.05;;;21.70;99.90;;;;;;4986777;28;20428;-77
2023/09/11 08:51:21;;;;;;;14.90;8.88;;;21.90;99.90;;;;;;4984727;28;20034;-77
2023/09/11 08:53:51;;;;;;;18.58;10.02;;;21.80;99.90;;;;;;4982112;28;20030;-76
2023/09/11 08:56:17;;;;;;;11.27;8.88;;;21.80;99.90;;;;;;4984944;28;20038;-76
2023/09/11 08:58:43;;;;;;;17.38;9.85;;;21.80;99.90;;;;;;4982371;28;20051;-75
2023/09/11 09:01:09;;;;;;;13.35;8.40;;;22.80;99.90;;;;;;4985773;28;20029;-77
2023/09/11 09:03:37;;;;;;;14.57;9.88;;;26.20;99.90;;;;;;4982113;28;20113;-77
2023/09/11 09:06:04;;;;;;;10.07;8.63;;;27.20;98.70;;;;;;4981767;28;20045;-77
2023/09/11 09:08:31;;;;;;;12.20;9.63;;;28.20;97.60;;;;;;4984607;28;20034;-77
2023/09/11 09:10:58;;;;;;;12.45;8.50;;;28.30;97.50;;;;;;4989638;28;20026;-76
2023/09/11 09:13:25;;;;;;;13.55;9.68;;;29.30;96.80;;;;;;4983078;28;20033;-76
2023/09/11 09:15:51;;;;;;;12.77;9.38;;;29.50;95.90;;;;;;4983551;28;20088;-76
2023/09/11 09:18:17;;;;;;;16.73;8.73;;;29.70;96.00;;;;;;4984309;28;20139;-76
2023/09/11 09:20:42;;;;;;;13.50;9.10;;;29.70;95.70;;;;;;4982851;28;20037;-76
2023/09/11 09:23:08;;;;;;;12.30;8.63;;;30.10;95.40;;;;;;4983437;28;20065;-76
2023/09/11 09:25:34;;;;;;;19.50;8.85;;;29.90;95.00;;;;;;4984018;28;20403;-76
2023/09/11 09:28:00;;;;;;;11.95;9.18;;;29.40;95.30;;;;;;4989326;28;20179;-76
2023/09/11 09:30:31;;;;;;;16.08;9.27;;;29.50;95.70;;;;;;4992112;28;20029;-76
2023/09/11 09:32:57;;;;;;;11.63;8.60;;;29.90;95.30;;;;;;4993428;28;20967;-76
2023/09/11 09:35:30;;;;;;;18.83;9.65;;;30.70;95.10;;;;;;4987873;28;20030;-76
2023/09/11 09:37:57;;;;;;;16.10;9.53;;;30.90;94.30;;;;;;4990369;28;20076;-76
2023/09/11 09:40:39;;;;;;;11.40;8.57;;;31.20;94.50;;;;;;4994231;28;20061;-76
2023/09/11 09:43:08;;;;;;;12.60;8.80;;;30.90;94.80;;;;;;4993685;28;20045;-77
2023/09/11 09:45:39;;;;;;;12.55;7.88;;;29.90;94.90;;;;;;4992010;28;20077;-76
2023/09/11 09:48:18;;;;;;;12.52;8.50;;;28.70;95.70;;;;;;4986342;28;20116;-77
2023/09/11 09:50:47;;;;;;;11.43;8.57;;;27.60;96.30;;;;;;4992265;28;20030;-77
2023/09/11 09:53:21;;;;;;;15.65;9.23;;;26.80;97.70;;;;;;4994352;28;20026;-77
2023/09/11 09:55:47;;;;;;;12.98;8.73;;;25.90;97.80;;;;;;4987227;28;20039;-76
2023/09/11 09:58:12;;;;;;;15.10;9.45;;;25.20;98.90;;;;;;4987956;28;21054;-76
2023/09/11 10:00:38;;;;;;;13.73;8.93;;;25.00;99.30;;;;;;4990894;28;20517;-76
2023/09/11 10:03:04;;;;;;;14.13;9.27;;;24.90;99.20;;;;;;4988974;28;20061;-77
2023/09/11 10:05:30;;;;;;;13.93;9.40;;;24.70;99.60;;;;;;4991687;28;20026;-76
2023/09/11 10:07:59;;;;;;;18.05;9.40;;;24.60;99.60;;;;;;4988767;28;20027;-77
2023/09/11 10:10:29;;;;;;;14.63;9.00;;;24.60;99.50;;;;;;4986576;28;20104;-77
2023/09/11 10:13:04;;;;;;;13.85;9.45;;;24.80;99.80;;;;;;4984144;28;20042;-76
2023/09/11 10:15:31;;;;;;;14.88;9.35;;;25.00;99.70;;;;;;4999429;28;20423;-76
2023/09/11 10:17:57;;;;;;;13.80;9.50;;;25.30;99.50;;;;;;4987071;28;20026;-76
2023/09/11 10:20:24;;;;;;;13.80;9.88;;;25.40;99.30;;;;;;4990620;28;20480;-76
2023/09/11 10:23:02;;;;;;;12.18;9.43;;;25.20;99.00;;;;;;4991131;28;20621;-76
2023/09/11 10:25:29;;;;;;;11.43;8.52;;;25.30;99.60;;;;;;4986383;28;20030;-76
2023/09/11 10:28:03;;;;;;;15.15;9.30;;;25.60;99.70;;;;;;4985670;28;20027;-76
2023/09/11 10:30:53;;;;;;;15.57;8.35;;;25.60;99.30;;;;;;4985193;28;20041;-76
2023/09/11 10:33:21;;;;;;;14.48;9.07;;;25.40;99.10;;;;;;4983509;28;20065;-76
2023/09/11 10:35:50;;;;;;;16.02;8.85;;;25.20;98.80;;;;;;4985433;28;20042;-77
2023/09/11 10:38:16;;;;;;;11.60;8.05;;;25.40;99.40;;;;;;4985624;28;20027;-77
2023/09/11 10:40:43;;;;;;;19.95;9.93;;;26.00;98.90;;;;;;4987137;28;20040;-77
2023/09/11 10:43:10;;;;;;;15.93;10.10;;;26.10;98.90;;;;;;4990807;28;20022;-76
2023/09/11 10:45:36;;;;;;;13.63;8.10;;;26.20;99.30;;;;;;4997508;28;20850;-76
2023/09/11 10:48:02;;;;;;;14.23;9.05;;;26.00;99.10;;;;;;4986623;28;20089;-76
2023/09/11 10:50:32;;;;;;;12.13;8.05;;;26.20;99.20;;;;;;4992933;28;20503;-79
2023/09/11 10:52:58;;;;;;;14.05;8.77;;;26.10;98.60;;;;;;4985022;28;20034;-81
2023/09/11 10:55:24;;;;;;;14.52;8.35;;;26.30;98.70;;;;;;4988393;28;20033;-79
2023/09/11 10:57:56;;;;;;;10.75;7.88;;;26.50;98.60;;;;;;4990993;28;20128;-77
2023/09/11 11:00:22;;;;;;;14.90;8.30;;;26.80;97.70;;;;;;4996935;28;20395;-80
2023/09/11 11:02:49;;;;;;;13.23;7.65;;;26.90;97.30;;;;;;4993526;28;20027;-77
2023/09/11 11:05:15;;;;;;;11.00;7.35;;;26.80;97.00;;;;;;4990269;28;20026;-76
2023/09/11 11:07:41;;;;;;;11.35;7.78;;;27.00;97.10;;;;;;4993657;28;20038;-77
2023/09/11 11:10:12;;;;;;;13.20;8.50;;;26.80;96.60;;;;;;4994915;28;20041;-75
2023/09/11 11:12:40;;;;;;;13.95;7.65;;;27.10;97.70;;;;;;4988312;28;20060;-76
2023/09/11 11:15:23;;;;;;;10.77;7.90;;;27.00;97.00;;;;;;4993228;28;20371;-76
2023/09/11 11:18:27;;;;;;;8.48;6.75;;;27.20;97.00;;;;;;4987608;28;20476;-77
2023/09/11 11:20:59;;;;;;;10.63;7.25;;;27.20;96.10;;;;;;4926173;29;20620;-76
2023/09/11 11:23:26;;;;;;;12.13;8.40;;;27.20;96.50;;;;;;4924117;29;20032;-79
2023/09/11 11:25:52;;;;;;;9.23;6.93;;;27.20;96.70;;;;;;4957277;28;20092;-76
2023/09/11 11:28:22;;;;;;;11.63;8.15;;;27.70;96.00;;;;;;4985038;28;20462;-75
2023/09/11 11:30:52;;;;;;;15.93;7.57;;;27.70;96.30;;;;;;4990339;28;20076;-75
2023/09/11 11:33:22;;;;;;;10.55;7.80;;;27.80;96.30;;;;;;4988828;28;20088;-76
2023/09/11 11:35:48;;;;;;;11.20;7.15;;;27.80;96.70;;;;;;4985225;28;20491;-75
2023/09/11 11:38:18;;;;;;;17.40;8.13;;;27.80;96.10;;;;;;4985075;28;20480;-76
2023/09/11 11:40:45;;;;;;;10.38;7.78;;;27.80;97.00;;;;;;4986524;28;20543;-76
2023/09/11 11:43:11;;;;;;;9.93;7.97;;;27.90;96.70;;;;;;4988080;28;20030;-76
2023/09/11 11:45:41;;;;;;;11.38;7.75;;;27.90;96.30;;;;;;4986363;28;20500;-76
2023/09/11 11:48:10;;;;;;;9.50;8.00;;;27.90;96.70;;;;;;4983520;28;20048;-75
2023/09/11 11:50:35;;;;;;;11.45;7.68;;;27.70;96.80;;;;;;4984147;28;20186;-75
2023/09/11 11:53:04;;;;;;;12.73;7.68;;;27.60;97.70;;;;;;4987285;28;20125;-75
2023/09/11 11:55:30;;;;;;;9.60;7.90;;;27.70;97.50;;;;;;4986895;28;20432;-76
2023/09/11 11:57:56;;;;;;;10.75;8.07;;;27.90;97.50;;;;;;4983744;28;20077;-76
2023/09/11 12:00:21;;;;;;;12.27;8.63;;;28.00;97.90;;;;;;4985655;28;20046;-75
2023/09/11 12:02:47;;;;;;;11.82;8.48;;;27.90;97.60;;;;;;4982960;28;20069;-75
2023/09/11 12:05:14;;;;;;;11.68;8.48;;;28.00;97.30;;;;;;4986988;28;20072;-76
2023/09/11 12:07:41;;;;;;;13.85;8.10;;;28.10;96.80;;;;;;4988219;28;20080;-75
2023/09/11 12:10:10;;;;;;;9.52;7.78;;;27.90;97.10;;;;;;4986524;28;20045;-75
2023/09/11 12:12:40;;;;;;;11.75;8.43;;;28.00;96.90;;;;;;4983291;28;20060;-75
2023/09/11 12:15:08;;;;;;;11.40;7.97;;;28.00;96.10;;;;;;4984078;28;20034;-76
2023/09/11 12:17:34;;;;;;;11.68;8.00;;;28.10;97.00;;;;;;4987105;28;20041;-75
2023/09/11 12:20:18;;;;;;;15.27;8.10;;;28.30;96.20;;;;;;4981066;28;20034;-75
2023/09/11 12:22:44;;;;;;;9.02;6.60;;;28.20;96.20;;;;;;4988104;28;20220;-75
2023/09/11 12:25:11;;;;;;;14.82;7.57;;;28.30;96.50;;;;;;4985301;28;20031;-75
2023/09/11 12:27:37;;;;;;;12.80;7.28;;;28.70;97.20;;;;;;4983946;28;20030;-75
2023/09/11 12:30:05;;;;;;;8.10;5.93;;;28.90;96.80;;;;;;4985275;28;20380;-75
2023/09/11 12:32:32;;;;;;;9.23;6.95;;;29.10;95.70;;;;;;4985896;28;20042;-75
2023/09/11 12:34:59;;;;;;;9.38;7.18;;;29.30;95.40;;;;;;4984502;28;20095;-75
2023/09/11 12:37:24;;;;;;;10.63;6.85;;;29.30;94.90;;;;;;4988931;28;20411;-76